Flight Track Log - Related Links

Times and Time Zones

All times are in EDT time to prevent confusion due to time zone crossing. See the UAL1259 flight status page for this flight to view local times or setup timezone preferences in your user account.

Time Position Orientation Groundspeed Altitude Reporting Facility
EDT Latitude Longitude Course Direction KTS MPH feet Rate Location/Type
Thu 09:39:24 PM 33.9290 -118.4950 265° West 226 260 3,300  Level FlightAware ADS-B
Thu 09:39:49 PM 33.9270 -118.5300 266° West 257 296 4,200 2,836 Climbing FlightAware ADS-B
Thu 09:40:19 PM 33.9210 -118.5750 261° West 272 313 5,900 3,273 Climbing FlightAware ADS-B
Thu 09:40:44 PM 33.9170 -118.6110 262° West 277 319 7,200 3,360 Climbing FlightAware ADS-B
Thu 09:41:09 PM 33.9120 -118.6520 262° West 282 325 8,700 3,171 Climbing FlightAware ADS-B
Thu 09:41:54 PM 33.9040 -118.7180 262° West 295 339 10,900 3,133 Climbing FlightAware ADS-B
Thu 09:42:39 PM 33.8950 -118.7960 262° West 301 346 13,400 3,176 Climbing FlightAware ADS-B
Thu 09:43:19 PM 33.8880 -118.8630 263° West 304 350 15,400 2,716 Climbing FlightAware ADS-B
Thu 09:44:14 PM 33.8950 -118.9500 276° West 313 360 17,700 2,460 Climbing FlightAware ADS-B
Thu 09:44:59 PM 33.9440 -119.0110 314° West 324 373 19,500 2,400 Climbing FlightAware ADS-B
Thu 09:45:39 PM 33.9830 -119.0640 312° West 327 376 21,100 2,329 Climbing FlightAware ADS-B
Thu 09:46:24 PM 34.0280 -119.1260 311° West 332 382 22,800 2,047 Climbing FlightAware ADS-B
Thu 09:47:04 PM 34.0700 -119.1810 313° West 341 392 24,000 1,425 Climbing FlightAware ADS-B
Thu 09:47:44 PM 34.1150 -119.2400 313° West 368 423 24,700 706 Climbing FlightAware ADS-B
Thu 09:48:29 PM 34.1710 -119.3150 312° West 406 467 25,000 494 Climbing FlightAware ADS-B
Thu 09:49:09 PM 34.2210 -119.3820 312° West 429 494 25,400 565 Climbing FlightAware ADS-B
Thu 09:49:54 PM 34.2780 -119.4590 312° West 436 502 25,800 1,200 Climbing FlightAware ADS-B
Thu 09:50:24 PM 34.3200 -119.5150 312° West 449 517 26,900 1,650 Climbing FlightAware ADS-B
Thu 09:51:14 PM 34.3920 -119.6120 312° West 455 524 28,000 884 Climbing FlightAware ADS-B
Thu 09:51:59 PM 34.4490 -119.6910 311° West 454 522 28,300 1,835 Climbing FlightAware ADS-B
Thu 09:52:39 PM 34.5130 -119.7740 313° West 446 513 30,600 2,550 Climbing FlightAware ADS-B
Thu 09:53:19 PM 34.5740 -119.8420 317° Northwest 441 507 31,700 1,482 Climbing FlightAware ADS-B
Thu 09:54:04 PM 34.6410 -119.9140 319° Northwest 439 505 32,700 1,200 Climbing FlightAware ADS-B
Thu 09:54:39 PM 34.6940 -119.9720 318° Northwest 443 510 33,300 1,129 Climbing FlightAware ADS-B
Thu 09:55:29 PM 34.7690 -120.0550 318° Northwest 441 507 34,300 1,333 Climbing FlightAware ADS-B
Thu 09:56:09 PM 34.8320 -120.1240 318° Northwest 434 499 35,300 1,200 Climbing FlightAware ADS-B
Thu 09:56:54 PM 34.8960 -120.1940 318° Northwest 433 498 36,000 420 Climbing FlightAware ADS-B
Thu 09:57:49 PM 34.9780 -120.2840 318° Northwest 436 502 36,000  Level FlightAware ADS-B
Thu 09:58:29 PM 35.0310 -120.3450 317° Northwest 436 502 36,000  Level FlightAware ADS-B
Thu 09:59:09 PM 35.0990 -120.4190 318° Northwest 435 501 36,000  Level FlightAware ADS-B
Thu 09:59:54 PM 35.1650 -120.4920 318° Northwest 435 501 36,000  Level FlightAware ADS-B
Thu 10:00:24 PM 35.2100 -120.5410 318° Northwest 434 499 36,000  Level FlightAware ADS-B
Thu 10:01:19 PM 35.2930 -120.6350 317° Northwest 433 498 36,000  Level FlightAware ADS-B
Thu 10:02:14 PM 35.3720 -120.7220 318° Northwest 432 497 36,000  Level FlightAware ADS-B
Thu 10:02:54 PM 35.4330 -120.7900 318° Northwest 432 497 36,000  Level FlightAware ADS-B
Thu 10:03:39 PM 35.4990 -120.8660 317° Northwest 432 497 36,000  Level FlightAware ADS-B
Thu 10:04:19 PM 35.5580 -120.9320 318° Northwest 432 497 36,000  Level FlightAware ADS-B
Thu 10:05:04 PM 35.6230 -121.0050 318° Northwest 432 497 36,000  Level FlightAware ADS-B
Thu 10:05:44 PM 35.6820 -121.0720 317° Northwest 431 496 36,000  Level FlightAware ADS-B
Thu 10:06:24 PM 35.7410 -121.1380 318° Northwest 431 496 36,000  Level FlightAware ADS-B
Thu 10:07:09 PM 35.8070 -121.2140 317° Northwest 431 496 36,000  Level FlightAware ADS-B
Thu 10:07:49 PM 35.8660 -121.2800 318° Northwest 430 495 36,000  Level FlightAware ADS-B
Thu 10:08:34 PM 35.9310 -121.3550 317° Northwest 430 495 36,000 -494 Level FlightAware ADS-B
Thu 10:09:14 PM 35.9880 -121.4200 317° Northwest 441 507 35,300 -975 Descending FlightAware ADS-B
Thu 10:09:54 PM 36.0510 -121.4920 317° Northwest 454 522 34,700 -1,840 Descending FlightAware ADS-B
Thu 10:10:29 PM 36.1030 -121.5520 317° Northwest 455 524 33,000 -3,035 Descending FlightAware ADS-B
Thu 10:11:19 PM 36.1810 -121.6410 317° Northwest 457 526 30,400 -2,905 Descending FlightAware ADS-B
Thu 10:12:04 PM 36.2610 -121.7110 325° Northwest 441 507 28,400 -2,471 Descending FlightAware ADS-B
Thu 10:12:44 PM 36.3240 -121.7650 325° Northwest 430 495 26,900 -2,325 Descending FlightAware ADS-B
Thu 10:13:24 PM 36.3860 -121.8200 324° Northwest 421 484 25,300 -2,400 Descending FlightAware ADS-B
Thu 10:14:09 PM 36.4640 -121.8790 329° Northwest 404 465 23,500 -2,259 Descending FlightAware ADS-B
Thu 10:14:49 PM 36.5340 -121.9030 345° North 391 450 22,100 -2,175 Descending FlightAware ADS-B
Thu 10:15:29 PM 36.5990 -121.9220 347° North 384 442 20,600 -2,259 Descending FlightAware ADS-B
Thu 10:16:14 PM 36.6800 -121.9450 347° North 372 428 18,900 -2,340 Descending FlightAware ADS-B
Thu 10:17:09 PM 36.7680 -121.9710 347° North 372 428 16,700 -2,340 Descending FlightAware ADS-B
Thu 10:17:54 PM 36.8450 -121.9900 349° North 355 409 15,000 -2,118 Descending FlightAware ADS-B
Thu 10:18:34 PM 36.9100 -122.0080 348° North 346 398 13,700 -1,976 Descending FlightAware ADS-B
Thu 10:19:19 PM 36.9790 -122.0260 348° North 340 391 12,200 -1,976 Descending FlightAware ADS-B
Thu 10:19:59 PM 37.0380 -122.0410 349° North 334 384 10,900 -1,500 Descending FlightAware ADS-B
Thu 10:20:39 PM 37.0990 -122.0570 348° North 310 357 10,200 -706 Descending FlightAware ADS-B
Thu 10:21:24 PM 37.1550 -122.0720 348° North 283 326 9,900 -675 Descending FlightAware ADS-B
Thu 10:21:59 PM 37.1950 -122.0830 348° North 279 321 9,300 -1,200 Descending FlightAware ADS-B
Thu 10:22:34 PM 37.2410 -122.0950 348° North 277 319 8,500 -1,400 Descending FlightAware ADS-B
Thu 10:22:59 PM 37.2740 -122.1030 349° North 274 315 7,900 -1,418 Descending FlightAware ADS-B
Thu 10:23:29 PM 37.3110 -122.1130 348° North 273 314 7,200 -1,418 Descending FlightAware ADS-B
Thu 10:23:54 PM 37.3410 -122.1210 348° North 269 310 6,600 -1,527 Descending FlightAware ADS-B
Thu 10:24:24 PM 37.3810 -122.1320 348° North 270 311 5,800 -1,500 Descending FlightAware ADS-B
Thu 10:24:54 PM 37.4170 -122.1410 349° North 265 305 5,100 -1,000 Descending FlightAware ADS-B
Thu 10:25:24 PM 37.4530 -122.1500 349° North 248 285 4,800 -327 Descending FlightAware ADS-B
Thu 10:25:49 PM 37.4770 -122.1570 347° North 224 258 4,800 -600 Level FlightAware ADS-B
Thu 10:26:14 PM 37.5030 -122.1640 348° North 218 251 4,300 -1,350 Descending FlightAware ADS-B
Thu 10:26:29 PM 37.5170 -122.1690 344° North 216 249 3,900 -1,333 Descending FlightAware ADS-B
Thu 10:26:59 PM 37.5410 -122.1910 324° Northwest 206 237 3,300 -933 Descending FlightAware ADS-B
Thu 10:27:14 PM 37.5470 -122.2050 298° West 188 216 3,200 -857 Descending FlightAware ADS-B
Thu 10:27:34 PM 37.5550 -122.2230 299° West 176 203 2,800 -1,309 Descending FlightAware ADS-B
Thu 10:28:09 PM 37.5670 -122.2510 298° West 170 196 2,000 -800 Descending FlightAware ADS-B
Thu 10:28:34 PM 37.5750 -122.2700 298° West 170 196 2,000  Level FlightAware ADS-B

Login

Don't have an account? Register now (free) for customized features, flight alerts, and more!